KGON 050656Z AUTO 31012G21KT 10SM SCT100 M04/M16 A2974 RMK AO2 SLP071 T10391156

KGON 050556Z AUTO 31016G21KT 10SM CLR M04/M16 A2974 RMK AO2 PK WND 32029/0530 SLP071 T10391156 10000 21039 53001

KGON 050456Z AUTO 32019G26KT 10SM CLR M04/M16 A2974 RMK AO2 PK WND 29039/0418 SLP070 T10391156 400671044

KGON 050356Z AUTO 31020G29KT 10SM CLR M03/M14 A2974 RMK AO2 PK WND 32031/0316 SLP069 T10281144

KGON 050256Z 30014G22KT 10SM CLR M02/M15 A2974 RMK AO2 PK WND 30028/0235 SLP070 T10221150 58000

KGON 050156Z 31012G26KT 10SM CLR M01/M15 A2974 RMK AO2 PK WND 29026/0151 SLP070 T10111150

KGON 050056Z 30016KT 10SM CLR M01/M13 A2975 RMK AO2 SLP072 T10061133

KGON 042356Z 30013KT 10SM CLR 00/M13 A2974 RMK AO2 SLP070 T00001128 10067 20000 53014